Time;durP1;ratioP1;P1;durP2;ratioP2;P2;SDS_P1;SDS_P2;PMS_P1;PMS_P2;Temp;Humidity;BMP_temperature;BMP_pressure;BME280_temperature;BME280_humidity;BME280_pressure;Samples;Min_cycle;Max_cycle;Signal;HPM_P1;HPM_P2
2022/06/18 00:01:59;;;;;;;10.65;3.05;;;13.00;62.60;;;;;;5012675;28;20200;-49
2022/06/18 00:04:30;;;;;;;6.35;3.72;;;13.00;62.60;;;;;;5013177;28;20229;-52
2022/06/18 00:07:03;;;;;;;6.90;3.50;;;13.00;62.50;;;;;;5013832;28;20204;-51
2022/06/18 00:09:41;;;;;;;6.20;3.22;;;13.00;62.50;;;;;;5013217;28;20217;-52
2022/06/18 00:15:09;;;;;;;7.10;3.15;;;13.10;62.00;;;;;;5013109;28;20208;-52
2022/06/18 00:17:40;;;;;;;6.63;3.47;;;13.10;61.70;;;;;;5012882;28;20204;-50
2022/06/18 00:20:12;;;;;;;6.45;3.10;;;13.10;61.50;;;;;;5012237;28;20207;-50
2022/06/18 00:22:44;;;;;;;5.60;3.05;;;13.10;61.60;;;;;;5003172;28;20248;-51
2022/06/18 00:25:24;;;;;;;4.10;2.83;;;13.10;62.60;;;;;;5000012;28;20595;-51
2022/06/18 00:27:55;;;;;;;5.50;2.95;;;13.20;62.70;;;;;;5011437;28;20720;-51
2022/06/18 00:30:28;;;;;;;6.90;3.17;;;13.20;62.50;;;;;;5011694;28;20196;-53
2022/06/18 00:32:59;;;;;;;7.15;2.92;;;13.20;62.40;;;;;;5011821;28;20216;-52
2022/06/18 00:35:31;;;;;;;6.47;3.40;;;13.20;62.20;;;;;;5012515;28;20564;-53
2022/06/18 00:38:05;;;;;;;6.05;3.28;;;13.20;62.90;;;;;;5012411;28;20225;-52
2022/06/18 00:40:40;;;;;;;4.85;3.00;;;13.20;62.20;;;;;;5019910;28;20645;-51
2022/06/18 00:43:16;;;;;;;5.55;2.63;;;13.30;62.10;;;;;;5031219;28;20199;-50
2022/06/18 00:45:47;;;;;;;6.03;3.00;;;13.30;62.20;;;;;;5028124;28;20194;-56
2022/06/18 00:48:24;;;;;;;5.82;2.95;;;13.30;62.90;;;;;;5031932;28;20700;-53
2022/06/18 00:50:58;;;;;;;6.00;2.97;;;13.30;62.10;;;;;;5031923;28;20207;-52
2022/06/18 00:53:37;;;;;;;6.68;3.03;;;13.30;62.00;;;;;;5032375;28;20204;-57
2022/06/18 00:56:15;;;;;;;4.65;2.70;;;13.40;62.00;;;;;;5032624;28;20549;-49
2022/06/18 00:58:50;;;;;;;9.10;2.67;;;13.40;61.80;;;;;;5030947;28;20234;-50
2022/06/18 01:01:26;;;;;;;4.63;2.72;;;13.40;61.90;;;;;;5030839;28;20203;-51
2022/06/18 01:03:56;;;;;;;5.53;2.88;;;13.40;61.80;;;;;;5030719;28;20293;-52
2022/06/18 01:06:30;;;;;;;3.53;2.67;;;13.40;61.90;;;;;;5025657;28;20279;-49
2022/06/18 01:09:04;;;;;;;5.10;2.90;;;13.40;61.80;;;;;;4991353;28;20221;-50
2022/06/18 01:11:41;;;;;;;3.30;2.25;;;13.40;62.40;;;;;;4991119;28;20670;-50
2022/06/18 01:14:14;;;;;;;5.90;2.17;;;13.40;61.50;;;;;;4991268;28;20197;-51
2022/06/18 01:16:45;;;;;;;5.95;2.80;;;13.40;61.30;;;;;;5000783;28;20849;-50
2022/06/18 01:19:23;;;;;;;4.82;3.03;;;13.50;61.20;;;;;;5010553;28;20232;-51
2022/06/18 01:22:03;;;;;;;4.15;2.28;;;13.50;61.10;;;;;;5010568;28;20196;-57
2022/06/18 01:24:40;;;;;;;4.70;2.53;;;13.50;61.00;;;;;;5010940;28;20231;-50
2022/06/18 01:27:12;;;;;;;4.07;2.50;;;13.50;61.00;;;;;;5010382;28;20204;-54
2022/06/18 01:29:43;;;;;;;6.57;2.97;;;13.50;60.90;;;;;;5010447;28;20224;-50
2022/06/18 01:32:17;;;;;;;4.10;2.40;;;13.50;61.00;;;;;;5010502;28;20283;-50
2022/06/18 01:34:49;;;;;;;5.63;2.50;;;13.50;61.00;;;;;;5010737;28;20200;-49
2022/06/18 01:37:20;;;;;;;4.13;2.50;;;13.60;61.10;;;;;;5009888;28;20212;-53
2022/06/18 01:39:52;;;;;;;3.33;2.38;;;13.60;61.00;;;;;;5010398;28;20733;-52
2022/06/18 01:42:28;;;;;;;4.45;2.40;;;13.60;61.00;;;;;;5010509;28;20201;-51
2022/06/18 01:45:02;;;;;;;3.35;2.70;;;13.60;60.90;;;;;;5010424;28;20228;-49
2022/06/18 01:47:37;;;;;;;3.35;2.42;;;13.60;60.70;;;;;;5010109;28;20551;-50
2022/06/18 01:50:12;;;;;;;3.97;2.28;;;13.60;60.60;;;;;;5010209;28;20693;-51
2022/06/18 01:52:48;;;;;;;3.38;2.40;;;13.60;60.50;;;;;;5009813;28;20633;-51
2022/06/18 01:55:27;;;;;;;4.80;2.70;;;13.70;60.50;;;;;;5010295;28;20200;-50
2022/06/18 01:58:06;;;;;;;3.88;2.22;;;13.60;60.30;;;;;;5026395;28;20212;-49
2022/06/18 02:00:37;;;;;;;4.18;2.38;;;13.70;60.40;;;;;;5030015;28;20648;-53
2022/06/18 02:03:08;;;;;;;4.72;2.47;;;13.70;60.30;;;;;;5030202;28;20200;-49
2022/06/18 02:05:39;;;;;;;4.00;2.47;;;13.70;60.30;;;;;;5029745;28;20223;-51
2022/06/18 02:08:12;;;;;;;3.90;2.20;;;13.70;60.30;;;;;;5010683;28;20270;-49
2022/06/18 02:10:48;;;;;;;4.00;2.55;;;13.70;60.30;;;;;;5010370;28;20556;-50
2022/06/18 02:13:21;;;;;;;3.72;2.58;;;13.70;60.20;;;;;;5009943;28;20207;-50
2022/06/18 02:15:52;;;;;;;4.75;2.72;;;13.70;60.20;;;;;;5010251;28;20204;-52
2022/06/18 02:18:23;;;;;;;4.22;2.88;;;13.70;60.20;;;;;;5010463;28;20232;-52
2022/06/18 02:20:57;;;;;;;3.35;2.47;;;13.70;60.20;;;;;;5010035;28;20578;-55
2022/06/18 02:23:28;;;;;;;3.75;2.30;;;13.70;60.20;;;;;;5009487;28;20201;-50
2022/06/18 02:26:00;;;;;;;3.30;2.20;;;13.70;60.20;;;;;;5009680;28;20220;-51
2022/06/18 02:28:35;;;;;;;4.03;2.45;;;13.70;60.10;;;;;;5010136;28;20224;-52
2022/06/18 02:31:07;;;;;;;4.15;2.55;;;13.80;60.10;;;;;;5010104;28;20355;-55
2022/06/18 02:33:42;;;;;;;3.35;2.65;;;13.80;60.00;;;;;;5010149;28;20208;-50
2022/06/18 02:36:17;;;;;;;2.60;2.13;;;13.80;60.00;;;;;;5009977;28;20193;-54
2022/06/18 02:38:49;;;;;;;4.25;2.67;;;13.80;59.90;;;;;;5008896;28;20216;-53
2022/06/18 02:41:22;;;;;;;3.40;2.53;;;13.80;59.90;;;;;;5009714;28;20197;-53
2022/06/18 02:43:53;;;;;;;4.68;2.58;;;13.90;59.90;;;;;;5009663;28;20208;-52
2022/06/18 02:46:25;;;;;;;6.13;2.70;;;13.80;59.80;;;;;;5009486;28;20201;-52
2022/06/18 02:48:56;;;;;;;2.17;1.98;;;13.80;59.80;;;;;;5009448;28;20275;-50
2022/06/18 02:51:27;;;;;;;2.97;2.33;;;13.80;59.70;;;;;;5009622;28;20199;-50
2022/06/18 02:53:58;;;;;;;5.07;2.85;;;13.90;59.80;;;;;;5021141;28;20200;-49
2022/06/18 02:56:30;;;;;;;2.92;2.30;;;13.80;59.70;;;;;;5029547;28;20226;-50
2022/06/18 02:59:01;;;;;;;2.97;2.40;;;13.90;59.80;;;;;;5028890;28;20216;-51
2022/06/18 03:01:32;;;;;;;3.08;2.30;;;13.80;59.70;;;;;;5029169;28;20207;-51
2022/06/18 03:04:03;;;;;;;2.90;2.55;;;13.90;59.80;;;;;;5031096;28;20192;-54
2022/06/18 03:06:35;;;;;;;3.28;2.45;;;13.90;59.80;;;;;;5027644;28;20618;-51
2022/06/18 03:09:07;;;;;;;2.72;2.05;;;13.90;59.80;;;;;;5012295;28;20252;-55
2022/06/18 03:14:37;;;;;;;3.55;2.67;;;13.90;59.80;;;;;;4971443;28;20221;-52
2022/06/18 03:17:08;;;;;;;2.65;2.10;;;13.90;59.70;;;;;;5004052;28;20645;-51
2022/06/18 03:19:43;;;;;;;2.28;2.00;;;13.90;59.70;;;;;;5015217;28;20219;-50
2022/06/18 03:22:16;;;;;;;4.10;2.72;;;13.90;59.60;;;;;;5012592;28;20230;-51
2022/06/18 03:24:47;;;;;;;2.50;2.10;;;13.90;59.60;;;;;;4993350;28;20235;-52
2022/06/18 03:27:20;;;;;;;2.78;2.20;;;13.90;59.60;;;;;;4993268;28;20210;-50
2022/06/18 03:29:52;;;;;;;2.80;2.22;;;14.00;59.50;;;;;;4993266;28;20260;-53
2022/06/18 03:32:23;;;;;;;2.88;2.10;;;13.90;59.50;;;;;;4993329;28;20208;-54
2022/06/18 03:34:53;;;;;;;3.65;2.45;;;14.00;59.50;;;;;;4993444;28;20209;-50
2022/06/18 03:37:24;;;;;;;3.67;2.58;;;13.90;59.50;;;;;;5004558;28;20197;-52
2022/06/18 03:39:55;;;;;;;2.95;2.17;;;14.00;59.50;;;;;;4993070;28;20221;-55
2022/06/18 03:42:27;;;;;;;2.83;2.00;;;14.00;59.50;;;;;;4993238;28;20716;-50
2022/06/18 03:44:58;;;;;;;3.22;2.05;;;14.00;59.50;;;;;;4993111;28;20694;-50
2022/06/18 03:47:29;;;;;;;4.45;2.30;;;14.00;59.50;;;;;;4993103;28;20212;-51
2022/06/18 03:49:59;;;;;;;3.65;2.38;;;14.00;59.50;;;;;;4993118;28;20416;-52
2022/06/18 03:52:30;;;;;;;3.38;2.45;;;14.00;59.50;;;;;;5002787;28;20220;-50
2022/06/18 03:55:01;;;;;;;4.03;2.38;;;14.00;59.50;;;;;;4992565;28;20197;-53
2022/06/18 03:57:33;;;;;;;4.78;2.45;;;14.00;59.50;;;;;;4992960;28;20202;-53
2022/06/18 04:00:05;;;;;;;2.90;2.17;;;14.00;59.50;;;;;;4992144;28;20677;-50
2022/06/18 04:02:36;;;;;;;3.00;2.20;;;14.00;60.10;;;;;;4992512;28;20669;-49
2022/06/18 04:05:08;;;;;;;3.88;2.42;;;14.00;59.50;;;;;;4992347;28;20221;-50
2022/06/18 04:07:39;;;;;;;4.07;2.08;;;14.00;59.40;;;;;;5005772;28;20722;-50
2022/06/18 04:10:18;;;;;;;3.53;2.60;;;14.00;59.40;;;;;;5012363;28;20208;-52
2022/06/18 04:12:51;;;;;;;2.92;2.35;;;14.00;59.40;;;;;;5011603;28;20205;-50
2022/06/18 04:15:22;;;;;;;2.58;2.10;;;14.00;59.30;;;;;;5011556;28;20201;-51
2022/06/18 04:17:52;;;;;;;3.90;2.35;;;14.00;59.30;;;;;;5011647;28;20196;-54
2022/06/18 04:20:25;;;;;;;3.78;2.30;;;14.00;59.20;;;;;;5011619;28;20201;-49
2022/06/18 04:22:56;;;;;;;3.08;2.38;;;14.00;59.20;;;;;;5009525;28;20207;-51
2022/06/18 04:25:27;;;;;;;2.85;2.33;;;14.00;59.20;;;;;;4999665;28;20236;-52
2022/06/18 04:28:00;;;;;;;2.88;2.22;;;14.00;59.20;;;;;;5011502;28;20319;-52
2022/06/18 04:30:33;;;;;;;2.78;2.13;;;14.00;59.20;;;;;;5011651;28;20672;-51
2022/06/18 04:33:03;;;;;;;3.47;2.38;;;14.00;59.20;;;;;;5011570;28;20227;-52
2022/06/18 04:35:34;;;;;;;4.25;2.72;;;14.00;59.40;;;;;;5011469;28;20240;-53
2022/06/18 04:38:05;;;;;;;3.72;2.33;;;14.00;59.50;;;;;;5010902;28;20225;-52
2022/06/18 04:40:37;;;;;;;3.47;2.40;;;14.00;59.50;;;;;;5011487;28;20729;-49
2022/06/18 04:43:11;;;;;;;4.78;2.70;;;14.00;59.50;;;;;;5011399;28;20665;-52
2022/06/18 04:45:42;;;;;;;3.88;2.45;;;14.00;59.50;;;;;;5013689;28;20220;-50
2022/06/18 04:48:15;;;;;;;2.92;2.40;;;14.10;59.60;;;;;;5011406;28;20223;-50
2022/06/18 04:50:46;;;;;;;6.25;2.85;;;14.10;59.50;;;;;;5011471;28;20562;-49
2022/06/18 04:53:17;;;;;;;5.13;2.75;;;14.10;59.40;;;;;;5010997;28;20207;-56
2022/06/18 04:55:48;;;;;;;6.97;3.20;;;14.10;59.40;;;;;;5010800;28;20280;-50
2022/06/18 04:58:20;;;;;;;5.00;3.13;;;14.10;59.40;;;;;;5011149;28;20216;-49
2022/06/18 05:00:51;;;;;;;3.65;2.60;;;14.10;59.30;;;;;;5011187;28;20205;-53
2022/06/18 05:03:23;;;;;;;3.90;2.65;;;14.10;59.30;;;;;;5010639;28;20657;-51
2022/06/18 05:05:53;;;;;;;5.43;2.80;;;14.10;59.30;;;;;;5010818;28;20722;-51
2022/06/18 05:08:24;;;;;;;4.40;2.80;;;14.10;59.30;;;;;;5010316;28;20209;-50
2022/06/18 05:10:55;;;;;;;4.63;2.65;;;14.10;59.20;;;;;;5003346;28;20233;-51
2022/06/18 05:13:29;;;;;;;3.80;2.33;;;14.10;59.20;;;;;;4991380;28;20198;-50
2022/06/18 05:16:01;;;;;;;4.30;3.00;;;14.10;59.20;;;;;;4991296;28;20201;-56
2022/06/18 05:18:34;;;;;;;5.88;3.58;;;14.10;59.30;;;;;;4991197;28;20697;-50
2022/06/18 05:21:05;;;;;;;7.07;3.40;;;14.10;59.60;;;;;;4990853;28;20197;-58
2022/06/18 05:23:36;;;;;;;4.43;2.58;;;14.10;60.10;;;;;;4995454;28;20204;-52
2022/06/18 05:26:08;;;;;;;2.58;1.90;;;14.10;61.10;;;;;;5009994;28;20221;-53
2022/06/18 05:28:40;;;;;;;2.55;1.70;;;14.10;60.50;;;;;;5012930;28;20221;-50
2022/06/18 05:31:11;;;;;;;2.80;1.40;;;14.10;60.20;;;;;;5010446;28;20717;-53
2022/06/18 05:33:42;;;;;;;4.32;1.70;;;14.10;60.20;;;;;;5010512;28;20205;-54
2022/06/18 05:36:19;;;;;;;3.83;1.55;;;14.10;60.20;;;;;;5010186;28;20256;-56
2022/06/18 05:38:53;;;;;;;1.98;1.20;;;14.10;60.20;;;;;;5009942;28;20482;-54
2022/06/18 05:41:23;;;;;;;1.65;1.45;;;14.10;60.30;;;;;;5008600;28;20197;-54
2022/06/18 05:44:02;;;;;;;4.43;2.85;;;14.10;60.40;;;;;;5010225;28;20193;-53
2022/06/18 05:46:33;;;;;;;5.05;3.90;;;14.10;60.50;;;;;;5009961;28;20228;-51
2022/06/18 05:49:03;;;;;;;8.50;6.18;;;14.10;60.50;;;;;;5010247;28;20223;-52
2022/06/18 05:51:34;;;;;;;10.95;7.68;;;14.00;60.50;;;;;;5010493;28;20196;-52
2022/06/18 05:54:05;;;;;;;10.13;7.35;;;14.10;60.60;;;;;;5012662;28;20185;-53
2022/06/18 05:56:35;;;;;;;7.30;5.15;;;14.10;60.70;;;;;;5009355;28;20197;-51
2022/06/18 05:59:08;;;;;;;6.15;4.28;;;14.00;60.80;;;;;;5009868;28;20217;-53
2022/06/18 06:01:39;;;;;;;7.10;4.20;;;14.10;60.90;;;;;;5010121;28;20201;-51
2022/06/18 06:04:19;;;;;;;7.07;3.85;;;14.10;61.00;;;;;;5010021;28;20201;-55
2022/06/18 06:07:15;;;;;;;4.25;2.97;;;14.10;61.00;;;;;;5007352;28;20232;-57
2022/06/18 06:12:46;;;;;;;4.68;2.72;;;14.00;60.80;;;;;;5006235;28;20208;-55
2022/06/18 06:15:26;;;;;;;5.55;2.50;;;14.10;60.80;;;;;;5010784;28;20207;-59
2022/06/18 06:17:57;;;;;;;7.03;3.05;;;14.10;60.70;;;;;;5009885;28;20228;-57
2022/06/18 06:20:30;;;;;;;5.45;3.63;;;14.10;60.70;;;;;;5009998;28;20192;-54
2022/06/18 06:23:01;;;;;;;6.45;3.55;;;14.10;60.70;;;;;;5010044;28;20633;-55
2022/06/18 06:25:35;;;;;;;5.03;3.80;;;14.10;60.60;;;;;;5010176;28;20224;-53
2022/06/18 06:28:08;;;;;;;4.85;3.10;;;14.10;60.50;;;;;;5009391;28;20707;-54
2022/06/18 06:30:45;;;;;;;5.25;4.00;;;14.10;60.40;;;;;;5010075;28;20200;-53
2022/06/18 06:33:16;;;;;;;5.90;4.97;;;14.10;60.30;;;;;;5010015;28;20200;-53
2022/06/18 06:35:51;;;;;;;5.47;4.18;;;14.10;60.10;;;;;;5009619;28;20211;-54
2022/06/18 06:38:22;;;;;;;5.50;3.58;;;14.10;60.00;;;;;;5006206;28;20667;-54
2022/06/18 06:40:54;;;;;;;3.42;3.13;;;14.10;59.90;;;;;;5013401;28;20201;-53
2022/06/18 06:43:25;;;;;;;2.95;2.70;;;14.10;59.80;;;;;;4994105;28;20284;-55
2022/06/18 06:45:57;;;;;;;4.10;2.88;;;14.00;59.80;;;;;;4993864;28;20225;-53
2022/06/18 06:48:28;;;;;;;4.18;3.30;;;14.00;59.80;;;;;;4994092;28;20217;-54
2022/06/18 06:50:59;;;;;;;3.78;2.80;;;14.00;59.80;;;;;;4994117;28;20200;-51
2022/06/18 06:53:30;;;;;;;3.65;3.00;;;14.00;59.80;;;;;;4993391;28;20197;-56
2022/06/18 06:58:47;;;;;;;5.07;3.38;;;13.90;59.80;;;;;;5013163;28;20216;-53
2022/06/18 07:01:29;;;;;;;3.47;2.70;;;13.90;60.40;;;;;;5013092;28;20203;-55
2022/06/18 07:04:00;;;;;;;4.43;3.10;;;13.90;59.70;;;;;;5012460;28;20195;-52
2022/06/18 07:06:30;;;;;;;5.60;3.28;;;13.80;59.60;;;;;;5013170;28;20236;-51
2022/06/18 07:09:01;;;;;;;5.25;3.38;;;13.90;59.70;;;;;;5013352;28;20249;-54
2022/06/18 07:11:33;;;;;;;3.17;2.70;;;13.80;59.70;;;;;;5012628;28;20232;-51
2022/06/18 07:22:05;;;;;;;5.22;4.32;;;13.70;59.60;;;;;;5177491;22;20250;-55
2022/06/18 07:24:38;;;;;;;7.63;5.43;;;13.70;59.70;;;;;;5031101;28;20319;-55
2022/06/18 07:27:09;;;;;;;6.70;4.97;;;13.70;59.70;;;;;;5032449;28;20231;-54
2022/06/18 07:29:40;;;;;;;7.18;5.57;;;13.60;59.70;;;;;;5032485;28;20227;-54
2022/06/18 07:32:14;;;;;;;4.32;3.55;;;13.60;59.80;;;;;;5032548;28;20752;-53
2022/06/18 07:34:45;;;;;;;4.95;3.25;;;13.60;59.80;;;;;;5032397;28;20571;-52
2022/06/18 07:37:18;;;;;;;3.20;2.70;;;13.50;59.80;;;;;;5032107;28;20207;-53
2022/06/18 07:39:48;;;;;;;13.60;8.50;;;13.50;59.80;;;;;;5031454;28;20220;-57
2022/06/18 07:42:22;;;;;;;20.90;12.60;;;13.50;59.90;;;;;;5031934;28;20192;-49
2022/06/18 07:44:53;;;;;;;32.10;20.00;;;13.50;59.90;;;;;;5032187;28;20576;-53
2022/06/18 07:47:24;;;;;;;42.55;26.02;;;13.50;59.90;;;;;;5032412;28;20224;-56
2022/06/18 07:49:54;;;;;;;43.92;28.30;;;13.40;59.90;;;;;;5031605;28;20224;-55
2022/06/18 07:52:27;;;;;;;29.35;19.23;;;13.40;59.90;;;;;;5032391;28;20557;-52
2022/06/18 07:54:58;;;;;;;17.27;11.68;;;13.40;59.90;;;;;;5031770;28;20204;-54
2022/06/18 07:57:29;;;;;;;12.77;9.25;;;13.40;59.90;;;;;;5032467;28;20211;-54
2022/06/18 08:00:00;;;;;;;10.07;7.18;;;13.30;59.90;;;;;;5018170;28;20224;-54
2022/06/18 08:02:33;;;;;;;6.80;5.70;;;13.30;59.80;;;;;;5012460;28;20665;-54
2022/06/18 08:05:03;;;;;;;7.63;6.65;;;13.30;59.80;;;;;;5012427;28;20196;-53
2022/06/18 08:07:39;;;;;;;8.90;7.43;;;13.30;59.80;;;;;;5023400;28;20224;-53
2022/06/18 08:10:10;;;;;;;7.95;6.03;;;13.20;59.80;;;;;;5018111;28;20208;-55
2022/06/18 08:12:41;;;;;;;7.95;6.00;;;13.20;59.70;;;;;;5019505;28;20682;-58
2022/06/18 08:15:12;;;;;;;8.10;6.05;;;13.20;59.70;;;;;;5032026;28;20211;-58
2022/06/18 08:17:43;;;;;;;5.75;5.15;;;13.10;59.50;;;;;;5032086;28;20208;-55
2022/06/18 08:20:15;;;;;;;5.60;4.60;;;13.10;59.40;;;;;;5033012;28;20205;-56
2022/06/18 08:22:50;;;;;;;6.30;3.50;;;13.00;59.30;;;;;;5032244;28;20208;-55
2022/06/18 08:25:21;;;;;;;8.30;3.90;;;13.00;59.20;;;;;;5020944;28;20200;-50
2022/06/18 08:27:52;;;;;;;8.38;3.65;;;13.00;59.40;;;;;;5011632;28;20236;-51
2022/06/18 08:30:23;;;;;;;7.15;3.85;;;13.00;59.80;;;;;;5012333;28;20208;-55
2022/06/18 08:32:54;;;;;;;5.05;3.25;;;13.00;60.00;;;;;;5012098;28;20200;-51
2022/06/18 08:35:25;;;;;;;4.32;3.42;;;13.00;60.10;;;;;;5011837;28;20856;-55
2022/06/18 08:37:59;;;;;;;4.68;3.53;;;12.90;60.20;;;;;;5028859;28;20203;-52
2022/06/18 08:40:44;;;;;;;4.00;3.28;;;13.00;60.60;;;;;;5031796;28;20200;-52
2022/06/18 08:43:33;;;;;;;6.75;3.50;;;13.00;60.80;;;;;;5032162;28;20192;-50
2022/06/18 08:46:13;;;;;;;6.63;3.20;;;13.00;60.90;;;;;;5031232;28;20251;-50
2022/06/18 08:49:12;;;;;;;6.65;3.13;;;13.00;60.90;;;;;;5031674;28;20220;-54
2022/06/18 08:51:49;;;;;;;5.43;3.28;;;13.00;61.00;;;;;;5031520;28;20200;-53
2022/06/18 08:54:34;;;;;;;5.18;3.80;;;13.00;61.20;;;;;;5032366;28;20195;-52
2022/06/18 08:57:13;;;;;;;3.63;3.13;;;13.00;61.20;;;;;;5030657;28;20192;-52
2022/06/18 08:59:56;;;;;;;4.13;3.47;;;13.00;61.30;;;;;;5031753;28;20587;-56
2022/06/18 09:02:31;;;;;;;4.28;3.22;;;13.00;61.40;;;;;;5030480;28;20194;-53
2022/06/18 09:05:18;;;;;;;3.75;3.13;;;13.00;61.50;;;;;;5031984;28;20571;-52
2022/06/18 09:08:16;;;;;;;4.47;2.90;;;13.00;61.50;;;;;;5031410;28;20243;-54
2022/06/18 09:11:17;;;;;;;6.05;3.45;;;13.00;61.50;;;;;;5031911;28;20258;-51
2022/06/18 09:13:54;;;;;;;5.22;3.15;;;13.00;61.40;;;;;;5031007;28;20180;-54
2022/06/18 09:16:30;;;;;;;3.50;3.20;;;13.00;61.30;;;;;;5031425;28;20641;-56
2022/06/18 09:19:05;;;;;;;4.80;3.20;;;13.00;61.40;;;;;;5031390;28;20223;-53
2022/06/18 09:21:41;;;;;;;5.50;3.42;;;13.00;61.40;;;;;;5031402;28;20674;-52
2022/06/18 09:24:18;;;;;;;3.30;2.83;;;13.00;61.50;;;;;;5031679;28;20198;-57
2022/06/18 09:26:55;;;;;;;3.70;3.17;;;13.00;61.50;;;;;;5031629;28;20594;-51
2022/06/18 09:29:30;;;;;;;3.50;2.88;;;13.00;61.60;;;;;;5031921;28;20224;-53
2022/06/18 09:32:04;;;;;;;3.22;2.88;;;13.00;61.60;;;;;;5030846;28;22238;-60
2022/06/18 09:34:42;;;;;;;3.38;2.60;;;13.00;61.60;;;;;;5031588;28;20210;-58
2022/06/18 09:37:18;;;;;;;3.22;2.92;;;13.00;61.60;;;;;;5031688;28;20196;-54
2022/06/18 09:39:55;;;;;;;3.17;2.90;;;13.10;61.60;;;;;;5031724;28;20223;-57
2022/06/18 09:42:35;;;;;;;3.70;3.25;;;13.10;61.70;;;;;;5031473;28;20662;-52
2022/06/18 09:45:11;;;;;;;3.33;2.90;;;13.10;61.70;;;;;;5031002;28;20644;-53
2022/06/18 09:47:44;;;;;;;3.33;3.03;;;13.10;61.60;;;;;;5030891;28;20703;-54
2022/06/18 09:50:21;;;;;;;4.40;2.90;;;13.00;61.60;;;;;;5031713;28;20196;-56
2022/06/18 09:52:57;;;;;;;3.13;2.80;;;13.10;61.80;;;;;;5031964;28;20200;-59
2022/06/18 09:55:40;;;;;;;4.32;2.90;;;13.10;61.80;;;;;;5031294;28;20686;-51
2022/06/18 09:58:17;;;;;;;2.95;2.65;;;13.10;61.80;;;;;;5031464;28;20223;-59
2022/06/18 10:00:49;;;;;;;3.20;2.88;;;13.10;61.70;;;;;;5021006;28;20192;-50
2022/06/18 10:08:56;;;;;;;2.97;2.67;;;13.10;61.70;;;;;;5031487;28;20667;-53
2022/06/18 10:11:27;;;;;;;3.33;2.45;;;13.10;61.70;;;;;;5031079;28;20200;-56
2022/06/18 10:14:06;;;;;;;4.22;2.88;;;13.10;61.80;;;;;;5035362;28;20219;-56
2022/06/18 10:16:47;;;;;;;3.40;3.10;;;13.10;61.90;;;;;;5035277;28;20273;-50
2022/06/18 10:19:28;;;;;;;2.88;2.65;;;13.10;61.80;;;;;;5034659;28;20227;-51
2022/06/18 10:22:07;;;;;;;3.20;2.80;;;13.10;61.70;;;;;;5034694;28;20208;-53
2022/06/18 10:24:46;;;;;;;3.47;2.85;;;13.10;61.70;;;;;;5035004;28;20215;-54
2022/06/18 10:27:23;;;;;;;4.55;2.58;;;13.10;61.60;;;;;;5035085;28;20224;-60
2022/06/18 10:30:06;;;;;;;3.03;2.83;;;13.10;61.60;;;;;;5035337;28;20811;-54
2022/06/18 10:32:50;;;;;;;3.13;2.72;;;13.10;61.60;;;;;;5034866;28;20221;-54
2022/06/18 10:35:46;;;;;;;3.40;2.58;;;13.10;61.70;;;;;;5034979;28;20199;-50
2022/06/18 10:38:35;;;;;;;3.47;2.72;;;13.10;61.60;;;;;;5034962;28;20220;-51
2022/06/18 10:41:12;;;;;;;2.75;2.42;;;13.10;61.70;;;;;;5034506;28;20196;-54
2022/06/18 10:44:10;;;;;;;2.67;2.47;;;13.10;61.60;;;;;;5034353;28;20196;-53
2022/06/18 10:46:43;;;;;;;4.22;2.60;;;13.10;62.10;;;;;;5015952;28;20258;-50
2022/06/18 10:49:14;;;;;;;2.95;2.65;;;13.10;62.10;;;;;;5031676;28;20219;-53
2022/06/18 10:51:50;;;;;;;2.78;2.50;;;13.10;62.20;;;;;;5034160;28;20196;-52
2022/06/18 10:54:31;;;;;;;3.17;2.55;;;13.10;62.30;;;;;;5034031;28;20199;-54
2022/06/18 10:57:02;;;;;;;3.03;2.72;;;13.10;62.30;;;;;;5034314;28;20203;-53
2022/06/18 10:59:36;;;;;;;3.30;2.65;;;13.10;62.30;;;;;;5032235;28;20299;-54
2022/06/18 11:02:29;;;;;;;3.88;2.78;;;13.10;62.20;;;;;;5034068;28;20207;-54
2022/06/18 11:05:01;;;;;;;2.70;2.50;;;13.10;62.20;;;;;;5020118;28;20207;-52
2022/06/18 11:07:35;;;;;;;3.75;2.70;;;13.10;62.10;;;;;;5027662;28;20285;-53
2022/06/18 11:10:09;;;;;;;3.92;2.33;;;13.10;62.00;;;;;;5034250;28;20200;-52
2022/06/18 11:12:41;;;;;;;3.22;2.50;;;13.10;62.00;;;;;;5033818;28;20290;-53
2022/06/18 11:15:28;;;;;;;2.65;2.30;;;13.10;61.90;;;;;;5034437;22;20228;-57
2022/06/18 11:18:04;;;;;;;3.05;2.50;;;13.10;62.00;;;;;;5013946;28;20227;-55
2022/06/18 11:20:35;;;;;;;2.78;2.42;;;13.20;62.00;;;;;;5014241;28;20207;-54
2022/06/18 11:23:16;;;;;;;2.83;2.50;;;13.10;61.90;;;;;;5014239;28;20192;-56
2022/06/18 11:25:56;;;;;;;2.55;2.35;;;13.20;62.00;;;;;;5013406;28;20236;-54
2022/06/18 11:28:39;;;;;;;2.72;2.25;;;13.10;61.90;;;;;;5012700;28;20474;-57
2022/06/18 11:31:13;;;;;;;2.65;2.40;;;13.20;62.00;;;;;;5013585;28;20228;-55
2022/06/18 11:33:57;;;;;;;2.58;2.38;;;13.20;62.10;;;;;;5013353;28;20193;-55
2022/06/18 11:36:47;;;;;;;2.97;2.35;;;13.10;62.10;;;;;;5012744;28;20557;-56
2022/06/18 11:39:39;;;;;;;3.10;2.60;;;13.20;62.20;;;;;;5012978;28;20308;-56
2022/06/18 11:42:17;;;;;;;2.83;2.60;;;13.20;62.30;;;;;;4994741;28;20212;-55
2022/06/18 11:44:55;;;;;;;3.05;2.72;;;13.10;62.10;;;;;;4993703;28;20207;-56
2022/06/18 11:47:29;;;;;;;2.85;2.50;;;13.20;62.10;;;;;;4993364;28;20225;-56
2022/06/18 11:50:07;;;;;;;2.53;2.33;;;13.20;62.10;;;;;;4993575;28;20217;-56
2022/06/18 11:52:43;;;;;;;3.10;2.80;;;13.20;62.00;;;;;;4993996;28;20197;-56
2022/06/18 11:55:22;;;;;;;3.05;2.42;;;13.20;62.00;;;;;;4992630;28;20197;-55
2022/06/18 11:58:01;;;;;;;4.30;3.30;;;13.10;61.90;;;;;;5004524;28;20192;-55
2022/06/18 12:00:40;;;;;;;2.97;2.60;;;13.20;62.10;;;;;;5013345;28;20691;-56
2022/06/18 12:03:35;;;;;;;3.55;2.78;;;13.20;62.10;;;;;;5010326;28;20656;-54
2022/06/18 12:06:15;;;;;;;3.10;2.80;;;13.20;62.20;;;;;;5012965;28;20211;-57
2022/06/18 12:08:47;;;;;;;3.47;2.90;;;13.20;62.20;;;;;;5003831;28;20570;-57
2022/06/18 12:11:35;;;;;;;3.70;3.30;;;13.20;62.20;;;;;;4993177;28;20209;-56
2022/06/18 12:14:10;;;;;;;3.35;2.90;;;13.10;62.10;;;;;;5006576;23;20214;-54
2022/06/18 12:16:49;;;;;;;4.30;2.90;;;13.20;62.10;;;;;;5013174;28;20207;-55
2022/06/18 12:19:23;;;;;;;3.70;3.20;;;13.10;62.10;;;;;;5012511;28;20221;-58
2022/06/18 12:21:58;;;;;;;3.70;3.05;;;13.10;62.10;;;;;;5011813;28;20203;-55
2022/06/18 12:24:40;;;;;;;3.13;2.55;;;13.10;62.90;;;;;;5012002;28;20193;-59
2022/06/18 12:27:13;;;;;;;3.25;2.95;;;13.10;62.20;;;;;;5011825;28;20217;-55
2022/06/18 12:29:58;;;;;;;3.50;2.80;;;13.10;62.10;;;;;;5011402;28;20224;-57
2022/06/18 12:32:41;;;;;;;3.67;3.30;;;13.10;62.00;;;;;;5012192;28;20227;-57
2022/06/18 12:35:21;;;;;;;3.47;2.80;;;13.10;61.90;;;;;;5011503;28;20215;-55
2022/06/18 12:38:06;;;;;;;3.25;2.70;;;13.10;61.90;;;;;;5011247;28;20192;-56
2022/06/18 12:40:44;;;;;;;3.28;2.90;;;13.10;62.00;;;;;;5011364;28;20207;-58
2022/06/18 12:43:20;;;;;;;3.58;2.90;;;13.10;62.00;;;;;;5011355;28;20193;-57
2022/06/18 12:46:01;;;;;;;4.75;3.13;;;13.10;62.00;;;;;;5011048;28;20204;-55
2022/06/18 12:48:43;;;;;;;4.07;2.88;;;13.10;62.10;;;;;;5011099;28;20278;-57
2022/06/18 12:51:28;;;;;;;3.85;2.75;;;13.10;62.10;;;;;;5011392;28;20203;-54
2022/06/18 12:54:30;;;;;;;3.00;2.70;;;13.10;62.10;;;;;;5011471;28;20200;-54
2022/06/18 12:57:10;;;;;;;4.07;2.70;;;13.10;62.00;;;;;;5010829;28;20196;-55
2022/06/18 12:59:47;;;;;;;3.63;2.83;;;13.10;62.00;;;;;;5010490;28;20696;-57
2022/06/18 13:02:22;;;;;;;2.95;2.70;;;13.10;62.00;;;;;;5011080;28;20223;-57
2022/06/18 13:05:19;;;;;;;2.95;2.53;;;13.10;62.00;;;;;;5011077;28;20200;-56
2022/06/18 13:07:58;;;;;;;3.53;2.92;;;13.10;62.00;;;;;;5010928;28;20236;-57
2022/06/18 13:10:38;;;;;;;3.60;2.90;;;13.10;61.90;;;;;;5011419;28;20200;-56
2022/06/18 13:13:22;;;;;;;3.90;2.65;;;13.10;62.00;;;;;;5011172;28;20196;-56
2022/06/18 13:16:00;;;;;;;4.95;2.95;;;13.10;62.00;;;;;;5011130;28;20209;-56
2022/06/18 13:18:35;;;;;;;3.55;2.72;;;13.10;62.00;;;;;;5010857;28;20278;-57
2022/06/18 13:21:08;;;;;;;2.70;2.50;;;13.10;61.90;;;;;;5010703;28;20680;-57
2022/06/18 13:29:29;;;;;;;3.42;2.85;;;13.00;61.80;;;;;;5010435;28;20302;-55
2022/06/18 13:32:08;;;;;;;2.88;2.53;;;13.00;61.80;;;;;;4991129;28;20211;-56
2022/06/18 13:34:48;;;;;;;3.97;2.63;;;13.00;61.90;;;;;;4991027;28;20197;-56
2022/06/18 13:37:27;;;;;;;3.25;2.67;;;13.00;61.90;;;;;;5002243;28;21415;-54
2022/06/18 13:40:05;;;;;;;4.15;3.15;;;13.00;62.00;;;;;;5010380;28;20228;-57
2022/06/18 13:42:47;;;;;;;3.22;2.53;;;13.00;62.00;;;;;;5010305;28;20565;-57
2022/06/18 13:45:32;;;;;;;3.40;2.67;;;13.00;62.00;;;;;;5009693;28;20203;-55
2022/06/18 13:48:11;;;;;;;3.10;2.53;;;13.00;62.00;;;;;;5009439;28;20225;-57
2022/06/18 13:50:48;;;;;;;3.17;2.75;;;13.00;61.90;;;;;;5009996;28;20408;-57
2022/06/18 13:53:33;;;;;;;3.40;2.50;;;12.90;61.90;;;;;;5010079;28;20667;-57
2022/06/18 13:56:18;;;;;;;3.22;2.50;;;12.90;61.80;;;;;;5009663;28;20580;-58
2022/06/18 13:58:54;;;;;;;2.88;2.58;;;12.90;61.80;;;;;;5009858;28;20212;-58